sensor_id;sensor_type;location;lat;lon;timestamp;P1;durP1;ratioP1;P2;durP2;ratioP2
28960;SDS011;16068;42.896;20.868;2022-11-04T00:01:33;6.72;;;3.47;;
28960;SDS011;16068;42.896;20.868;2022-11-04T00:04:03;5.63;;;3.67;;
28960;SDS011;16068;42.896;20.868;2022-11-04T00:06:31;8.77;;;3.30;;
28960;SDS011;16068;42.896;20.868;2022-11-04T00:08:59;5.57;;;3.50;;
28960;SDS011;16068;42.896;20.868;2022-11-04T00:11:26;6.10;;;3.30;;
28960;SDS011;16068;42.896;20.868;2022-11-04T00:14:13;6.07;;;2.97;;
28960;SDS011;16068;42.896;20.868;2022-11-04T00:16:41;6.57;;;3.58;;
28960;SDS011;16068;42.896;20.868;2022-11-04T00:19:28;7.78;;;3.80;;
28960;SDS011;16068;42.896;20.868;2022-11-04T00:22:15;4.70;;;2.80;;
28960;SDS011;16068;42.896;20.868;2022-11-04T00:25:01;6.03;;;3.45;;
28960;SDS011;16068;42.896;20.868;2022-11-04T00:27:48;5.88;;;3.28;;
28960;SDS011;16068;42.896;20.868;2022-11-04T00:30:34;6.13;;;3.30;;
28960;SDS011;16068;42.896;20.868;2022-11-04T00:33:02;5.72;;;3.17;;
28960;SDS011;16068;42.896;20.868;2022-11-04T00:35:49;6.63;;;3.10;;
28960;SDS011;16068;42.896;20.868;2022-11-04T00:38:18;3.85;;;2.63;;
28960;SDS011;16068;42.896;20.868;2022-11-04T00:40:45;5.45;;;3.08;;
28960;SDS011;16068;42.896;20.868;2022-11-04T00:43:13;4.45;;;2.83;;
28960;SDS011;16068;42.896;20.868;2022-11-04T00:45:40;4.50;;;2.67;;
28960;SDS011;16068;42.896;20.868;2022-11-04T00:48:08;4.65;;;2.60;;
28960;SDS011;16068;42.896;20.868;2022-11-04T00:50:37;6.05;;;2.85;;
28960;SDS011;16068;42.896;20.868;2022-11-04T00:53:05;3.97;;;2.72;;
28960;SDS011;16068;42.896;20.868;2022-11-04T00:55:33;4.70;;;2.70;;
28960;SDS011;16068;42.896;20.868;2022-11-04T00:58:00;4.30;;;2.67;;
28960;SDS011;16068;42.896;20.868;2022-11-04T01:00:28;5.30;;;2.80;;
28960;SDS011;16068;42.896;20.868;2022-11-04T01:02:55;5.30;;;2.70;;
28960;SDS011;16068;42.896;20.868;2022-11-04T01:05:23;4.97;;;3.08;;
28960;SDS011;16068;42.896;20.868;2022-11-04T01:07:51;5.72;;;2.75;;
28960;SDS011;16068;42.896;20.868;2022-11-04T01:10:18;5.03;;;3.13;;
28960;SDS011;16068;42.896;20.868;2022-11-04T01:12:46;4.22;;;2.70;;
28960;SDS011;16068;42.896;20.868;2022-11-04T01:15:13;6.43;;;2.85;;
28960;SDS011;16068;42.896;20.868;2022-11-04T01:17:41;5.40;;;2.90;;
28960;SDS011;16068;42.896;20.868;2022-11-04T01:20:09;4.57;;;2.95;;
28960;SDS011;16068;42.896;20.868;2022-11-04T01:22:39;5.00;;;2.70;;
28960;SDS011;16068;42.896;20.868;2022-11-04T01:25:07;7.25;;;3.20;;
28960;SDS011;16068;42.896;20.868;2022-11-04T01:27:35;6.70;;;3.53;;
28960;SDS011;16068;42.896;20.868;2022-11-04T01:30:02;6.97;;;3.45;;
28960;SDS011;16068;42.896;20.868;2022-11-04T01:32:30;8.52;;;3.83;;
28960;SDS011;16068;42.896;20.868;2022-11-04T01:34:58;5.97;;;3.28;;
28960;SDS011;16068;42.896;20.868;2022-11-04T01:37:25;7.25;;;3.80;;
28960;SDS011;16068;42.896;20.868;2022-11-04T01:39:53;4.50;;;2.97;;
28960;SDS011;16068;42.896;20.868;2022-11-04T01:42:21;6.03;;;3.30;;
28960;SDS011;16068;42.896;20.868;2022-11-04T01:47:31;5.88;;;3.20;;
28960;SDS011;16068;42.896;20.868;2022-11-04T01:50:13;5.30;;;2.80;;
28960;SDS011;16068;42.896;20.868;2022-11-04T01:55:24;4.93;;;2.72;;
28960;SDS011;16068;42.896;20.868;2022-11-04T01:57:55;5.40;;;3.08;;
28960;SDS011;16068;42.896;20.868;2022-11-04T02:00:26;5.28;;;2.85;;
28960;SDS011;16068;42.896;20.868;2022-11-04T02:02:58;4.38;;;2.75;;
28960;SDS011;16068;42.896;20.868;2022-11-04T02:05:27;5.07;;;2.97;;
28960;SDS011;16068;42.896;20.868;2022-11-04T02:07:56;7.25;;;3.65;;
28960;SDS011;16068;42.896;20.868;2022-11-04T02:10:25;5.78;;;3.60;;
28960;SDS011;16068;42.896;20.868;2022-11-04T02:12:54;4.95;;;3.20;;
28960;SDS011;16068;42.896;20.868;2022-11-04T02:18:05;6.70;;;2.95;;
28960;SDS011;16068;42.896;20.868;2022-11-04T02:31:30;4.85;;;2.90;;
28960;SDS011;16068;42.896;20.868;2022-11-04T02:34:10;4.60;;;2.92;;
28960;SDS011;16068;42.896;20.868;2022-11-04T02:36:50;4.82;;;3.25;;
28960;SDS011;16068;42.896;20.868;2022-11-04T02:43:09;7.13;;;2.78;;
28960;SDS011;16068;42.896;20.868;2022-11-04T02:45:45;6.93;;;3.15;;
28960;SDS011;16068;42.896;20.868;2022-11-04T02:48:26;5.68;;;2.88;;
28960;SDS011;16068;42.896;20.868;2022-11-04T02:54:06;5.35;;;3.22;;
28960;SDS011;16068;42.896;20.868;2022-11-04T02:56:35;4.95;;;3.17;;
28960;SDS011;16068;42.896;20.868;2022-11-04T02:59:06;4.82;;;2.83;;
28960;SDS011;16068;42.896;20.868;2022-11-04T03:01:38;4.68;;;3.17;;
28960;SDS011;16068;42.896;20.868;2022-11-04T03:04:10;4.00;;;2.65;;
28960;SDS011;16068;42.896;20.868;2022-11-04T03:06:41;4.33;;;2.70;;
28960;SDS011;16068;42.896;20.868;2022-11-04T03:09:11;4.43;;;2.63;;
28960;SDS011;16068;42.896;20.868;2022-11-04T03:11:42;5.22;;;2.70;;
28960;SDS011;16068;42.896;20.868;2022-11-04T03:16:50;4.47;;;2.60;;
28960;SDS011;16068;42.896;20.868;2022-11-04T03:19:28;4.75;;;2.70;;
28960;SDS011;16068;42.896;20.868;2022-11-04T03:21:59;5.22;;;2.78;;
28960;SDS011;16068;42.896;20.868;2022-11-04T03:24:29;5.53;;;2.50;;
28960;SDS011;16068;42.896;20.868;2022-11-04T03:26:58;4.07;;;2.75;;
28960;SDS011;16068;42.896;20.868;2022-11-04T03:29:31;4.10;;;2.85;;
28960;SDS011;16068;42.896;20.868;2022-11-04T03:34:30;5.88;;;3.00;;
28960;SDS011;16068;42.896;20.868;2022-11-04T03:36:58;5.03;;;2.65;;
28960;SDS011;16068;42.896;20.868;2022-11-04T03:39:26;5.78;;;2.70;;
28960;SDS011;16068;42.896;20.868;2022-11-04T03:41:58;5.93;;;2.72;;
28960;SDS011;16068;42.896;20.868;2022-11-04T03:44:28;3.40;;;2.38;;
28960;SDS011;16068;42.896;20.868;2022-11-04T03:47:04;4.38;;;2.58;;
28960;SDS011;16068;42.896;20.868;2022-11-04T03:49:31;5.32;;;2.70;;
28960;SDS011;16068;42.896;20.868;2022-11-04T03:51:59;6.93;;;2.75;;
28960;SDS011;16068;42.896;20.868;2022-11-04T03:54:26;5.97;;;2.90;;
28960;SDS011;16068;42.896;20.868;2022-11-04T03:56:58;7.18;;;3.00;;
28960;SDS011;16068;42.896;20.868;2022-11-04T04:05:10;4.53;;;2.55;;
28960;SDS011;16068;42.896;20.868;2022-11-04T04:13:22;4.88;;;2.88;;
28960;SDS011;16068;42.896;20.868;2022-11-04T04:19:12;5.03;;;2.72;;
28960;SDS011;16068;42.896;20.868;2022-11-04T04:21:43;5.47;;;3.22;;
28960;SDS011;16068;42.896;20.868;2022-11-04T04:24:14;7.07;;;3.53;;
28960;SDS011;16068;42.896;20.868;2022-11-04T04:27:09;4.60;;;3.20;;
28960;SDS011;16068;42.896;20.868;2022-11-04T04:30:05;5.72;;;3.28;;
28960;SDS011;16068;42.896;20.868;2022-11-04T04:32:36;5.43;;;3.03;;
28960;SDS011;16068;42.896;20.868;2022-11-04T04:35:14;5.28;;;3.63;;
28960;SDS011;16068;42.896;20.868;2022-11-04T04:38:01;5.07;;;3.17;;
28960;SDS011;16068;42.896;20.868;2022-11-04T04:41:00;7.32;;;3.05;;
28960;SDS011;16068;42.896;20.868;2022-11-04T04:43:49;5.70;;;3.15;;
28960;SDS011;16068;42.896;20.868;2022-11-04T04:47:52;4.82;;;2.90;;
28960;SDS011;16068;42.896;20.868;2022-11-04T04:50:24;4.78;;;2.78;;
28960;SDS011;16068;42.896;20.868;2022-11-04T04:52:55;5.05;;;2.83;;
28960;SDS011;16068;42.896;20.868;2022-11-04T04:58:31;5.03;;;3.03;;
28960;SDS011;16068;42.896;20.868;2022-11-04T05:01:02;4.50;;;2.90;;
28960;SDS011;16068;42.896;20.868;2022-11-04T05:03:37;5.53;;;3.17;;
28960;SDS011;16068;42.896;20.868;2022-11-04T05:06:11;9.38;;;5.13;;
28960;SDS011;16068;42.896;20.868;2022-11-04T05:08:38;9.43;;;5.38;;
28960;SDS011;16068;42.896;20.868;2022-11-04T05:11:16;11.68;;;5.63;;
28960;SDS011;16068;42.896;20.868;2022-11-04T05:13:48;8.70;;;4.60;;
28960;SDS011;16068;42.896;20.868;2022-11-04T05:16:18;8.05;;;4.32;;
28960;SDS011;16068;42.896;20.868;2022-11-04T05:18:45;6.43;;;3.80;;
28960;SDS011;16068;42.896;20.868;2022-11-04T05:21:13;5.55;;;3.58;;
28960;SDS011;16068;42.896;20.868;2022-11-04T05:23:50;8.10;;;3.90;;
28960;SDS011;16068;42.896;20.868;2022-11-04T05:26:18;7.28;;;3.38;;
28960;SDS011;16068;42.896;20.868;2022-11-04T05:28:51;6.60;;;3.60;;
28960;SDS011;16068;42.896;20.868;2022-11-04T05:31:19;5.22;;;3.17;;
28960;SDS011;16068;42.896;20.868;2022-11-04T05:33:46;5.55;;;3.08;;
28960;SDS011;16068;42.896;20.868;2022-11-04T05:36:16;4.15;;;2.67;;
28960;SDS011;16068;42.896;20.868;2022-11-04T05:38:48;6.40;;;3.08;;
28960;SDS011;16068;42.896;20.868;2022-11-04T05:41:25;6.68;;;3.13;;
28960;SDS011;16068;42.896;20.868;2022-11-04T05:43:59;4.05;;;2.88;;
28960;SDS011;16068;42.896;20.868;2022-11-04T05:46:28;6.13;;;3.30;;
28960;SDS011;16068;42.896;20.868;2022-11-04T05:49:05;5.53;;;3.00;;
28960;SDS011;16068;42.896;20.868;2022-11-04T05:51:33;7.20;;;3.05;;
28960;SDS011;16068;42.896;20.868;2022-11-04T05:54:00;4.53;;;2.72;;
28960;SDS011;16068;42.896;20.868;2022-11-04T05:59:29;3.85;;;2.60;;
28960;SDS011;16068;42.896;20.868;2022-11-04T06:01:56;5.30;;;3.10;;
28960;SDS011;16068;42.896;20.868;2022-11-04T06:04:24;3.92;;;2.65;;
28960;SDS011;16068;42.896;20.868;2022-11-04T06:07:00;5.28;;;2.33;;
28960;SDS011;16068;42.896;20.868;2022-11-04T06:09:29;5.53;;;2.70;;
28960;SDS011;16068;42.896;20.868;2022-11-04T06:12:09;5.30;;;2.88;;
28960;SDS011;16068;42.896;20.868;2022-11-04T06:14:54;5.80;;;2.65;;
28960;SDS011;16068;42.896;20.868;2022-11-04T06:17:22;6.07;;;3.30;;
28960;SDS011;16068;42.896;20.868;2022-11-04T06:20:05;6.70;;;3.97;;
28960;SDS011;16068;42.896;20.868;2022-11-04T06:22:33;6.50;;;4.03;;
28960;SDS011;16068;42.896;20.868;2022-11-04T06:25:01;7.05;;;3.97;;
28960;SDS011;16068;42.896;20.868;2022-11-04T06:27:28;6.55;;;3.67;;
28960;SDS011;16068;42.896;20.868;2022-11-04T06:29:55;8.32;;;3.63;;
28960;SDS011;16068;42.896;20.868;2022-11-04T06:32:23;7.18;;;3.50;;
28960;SDS011;16068;42.896;20.868;2022-11-04T06:34:50;6.25;;;3.80;;
28960;SDS011;16068;42.896;20.868;2022-11-04T06:37:18;4.43;;;2.85;;
28960;SDS011;16068;42.896;20.868;2022-11-04T06:39:46;6.40;;;3.60;;
28960;SDS011;16068;42.896;20.868;2022-11-04T06:42:14;5.72;;;2.97;;
28960;SDS011;16068;42.896;20.868;2022-11-04T06:44:41;4.68;;;2.88;;
28960;SDS011;16068;42.896;20.868;2022-11-04T06:47:09;3.78;;;2.47;;
28960;SDS011;16068;42.896;20.868;2022-11-04T06:49:36;3.60;;;2.40;;
28960;SDS011;16068;42.896;20.868;2022-11-04T06:52:04;6.82;;;3.20;;
28960;SDS011;16068;42.896;20.868;2022-11-04T06:54:31;7.55;;;2.75;;
28960;SDS011;16068;42.896;20.868;2022-11-04T06:56:59;5.32;;;3.22;;
28960;SDS011;16068;42.896;20.868;2022-11-04T06:59:27;4.95;;;2.80;;
28960;SDS011;16068;42.896;20.868;2022-11-04T07:01:55;5.07;;;3.28;;
28960;SDS011;16068;42.896;20.868;2022-11-04T07:04:22;5.30;;;3.03;;
28960;SDS011;16068;42.896;20.868;2022-11-04T07:06:50;4.88;;;2.97;;
28960;SDS011;16068;42.896;20.868;2022-11-04T07:09:17;4.93;;;3.17;;
28960;SDS011;16068;42.896;20.868;2022-11-04T07:11:45;5.82;;;3.00;;
28960;SDS011;16068;42.896;20.868;2022-11-04T07:14:12;6.55;;;3.40;;
28960;SDS011;16068;42.896;20.868;2022-11-04T07:16:40;5.90;;;3.03;;
28960;SDS011;16068;42.896;20.868;2022-11-04T07:19:08;5.18;;;2.90;;
28960;SDS011;16068;42.896;20.868;2022-11-04T07:21:35;5.65;;;2.70;;
28960;SDS011;16068;42.896;20.868;2022-11-04T07:24:03;4.55;;;2.70;;
28960;SDS011;16068;42.896;20.868;2022-11-04T07:26:31;4.30;;;2.60;;
28960;SDS011;16068;42.896;20.868;2022-11-04T07:28:58;6.68;;;3.08;;
28960;SDS011;16068;42.896;20.868;2022-11-04T07:31:27;6.38;;;3.20;;
28960;SDS011;16068;42.896;20.868;2022-11-04T07:33:55;5.07;;;2.75;;
28960;SDS011;16068;42.896;20.868;2022-11-04T07:36:22;5.03;;;2.58;;
28960;SDS011;16068;42.896;20.868;2022-11-04T07:38:50;8.48;;;3.72;;
28960;SDS011;16068;42.896;20.868;2022-11-04T07:41:17;4.97;;;3.25;;
28960;SDS011;16068;42.896;20.868;2022-11-04T07:43:49;6.38;;;3.00;;
28960;SDS011;16068;42.896;20.868;2022-11-04T07:46:17;7.85;;;3.83;;
28960;SDS011;16068;42.896;20.868;2022-11-04T07:48:45;8.88;;;4.22;;
28960;SDS011;16068;42.896;20.868;2022-11-04T07:51:14;10.75;;;6.30;;
28960;SDS011;16068;42.896;20.868;2022-11-04T07:53:43;11.65;;;7.25;;
28960;SDS011;16068;42.896;20.868;2022-11-04T07:56:11;11.40;;;7.30;;
28960;SDS011;16068;42.896;20.868;2022-11-04T07:58:39;9.93;;;6.47;;
28960;SDS011;16068;42.896;20.868;2022-11-04T08:01:08;10.65;;;6.35;;
28960;SDS011;16068;42.896;20.868;2022-11-04T08:03:38;10.30;;;6.70;;
28960;SDS011;16068;42.896;20.868;2022-11-04T08:06:09;12.20;;;8.00;;
28960;SDS011;16068;42.896;20.868;2022-11-04T08:08:38;12.23;;;6.75;;
28960;SDS011;16068;42.896;20.868;2022-11-04T08:11:10;12.48;;;7.57;;
28960;SDS011;16068;42.896;20.868;2022-11-04T08:13:44;16.10;;;8.00;;
28960;SDS011;16068;42.896;20.868;2022-11-04T08:16:19;18.30;;;10.48;;
28960;SDS011;16068;42.896;20.868;2022-11-04T08:18:49;18.58;;;9.60;;
28960;SDS011;16068;42.896;20.868;2022-11-04T08:21:19;14.68;;;8.48;;
28960;SDS011;16068;42.896;20.868;2022-11-04T08:23:47;16.08;;;7.32;;
28960;SDS011;16068;42.896;20.868;2022-11-04T08:26:18;15.57;;;7.15;;
28960;SDS011;16068;42.896;20.868;2022-11-04T08:28:47;11.48;;;6.60;;
28960;SDS011;16068;42.896;20.868;2022-11-04T08:31:19;13.85;;;6.03;;
28960;SDS011;16068;42.896;20.868;2022-11-04T08:33:52;11.43;;;6.05;;
28960;SDS011;16068;42.896;20.868;2022-11-04T08:36:21;14.00;;;6.57;;
28960;SDS011;16068;42.896;20.868;2022-11-04T08:38:53;10.25;;;5.90;;
28960;SDS011;16068;42.896;20.868;2022-11-04T08:41:23;8.25;;;4.90;;
28960;SDS011;16068;42.896;20.868;2022-11-04T08:43:53;7.40;;;4.50;;
28960;SDS011;16068;42.896;20.868;2022-11-04T08:46:22;9.57;;;5.35;;
28960;SDS011;16068;42.896;20.868;2022-11-04T08:48:49;8.27;;;5.20;;
28960;SDS011;16068;42.896;20.868;2022-11-04T08:51:21;8.73;;;5.30;;
28960;SDS011;16068;42.896;20.868;2022-11-04T08:53:50;16.98;;;6.57;;
28960;SDS011;16068;42.896;20.868;2022-11-04T08:56:19;16.25;;;7.93;;
28960;SDS011;16068;42.896;20.868;2022-11-04T08:58:52;11.85;;;6.47;;
28960;SDS011;16068;42.896;20.868;2022-11-04T09:01:20;12.60;;;6.70;;
28960;SDS011;16068;42.896;20.868;2022-11-04T09:03:48;18.30;;;7.88;;
28960;SDS011;16068;42.896;20.868;2022-11-04T09:06:18;17.42;;;8.60;;
28960;SDS011;16068;42.896;20.868;2022-11-04T09:08:47;11.70;;;7.13;;
28960;SDS011;16068;42.896;20.868;2022-11-04T09:11:16;12.05;;;7.03;;
28960;SDS011;16068;42.896;20.868;2022-11-04T09:13:44;12.73;;;8.13;;
28960;SDS011;16068;42.896;20.868;2022-11-04T09:16:12;11.15;;;7.03;;
28960;SDS011;16068;42.896;20.868;2022-11-04T09:18:40;15.20;;;7.20;;
28960;SDS011;16068;42.896;20.868;2022-11-04T09:21:08;13.73;;;6.95;;
28960;SDS011;16068;42.896;20.868;2022-11-04T09:23:36;11.70;;;6.55;;
28960;SDS011;16068;42.896;20.868;2022-11-04T09:26:07;11.07;;;6.30;;
28960;SDS011;16068;42.896;20.868;2022-11-04T09:28:36;10.77;;;6.43;;
28960;SDS011;16068;42.896;20.868;2022-11-04T09:31:08;8.10;;;5.70;;
28960;SDS011;16068;42.896;20.868;2022-11-04T09:33:37;10.93;;;5.53;;
28960;SDS011;16068;42.896;20.868;2022-11-04T09:36:05;12.10;;;6.38;;
28960;SDS011;16068;42.896;20.868;2022-11-04T09:38:38;10.85;;;6.20;;
28960;SDS011;16068;42.896;20.868;2022-11-04T09:46:49;16.10;;;7.93;;
28960;SDS011;16068;42.896;20.868;2022-11-04T09:49:19;11.05;;;6.55;;
28960;SDS011;16068;42.896;20.868;2022-11-04T09:51:47;11.63;;;6.47;;
28960;SDS011;16068;42.896;20.868;2022-11-04T09:56:53;14.48;;;6.25;;
28960;SDS011;16068;42.896;20.868;2022-11-04T09:59:28;9.57;;;5.43;;
28960;SDS011;16068;42.896;20.868;2022-11-04T10:12:53;11.05;;;6.10;;
28960;SDS011;16068;42.896;20.868;2022-11-04T10:15:39;8.43;;;5.43;;
28960;SDS011;16068;42.896;20.868;2022-11-04T10:23:45;9.52;;;5.68;;
28960;SDS011;16068;42.896;20.868;2022-11-04T10:26:31;10.85;;;5.60;;
28960;SDS011;16068;42.896;20.868;2022-11-04T10:29:04;9.82;;;5.30;;
28960;SDS011;16068;42.896;20.868;2022-11-04T10:31:33;13.13;;;4.65;;
28960;SDS011;16068;42.896;20.868;2022-11-04T10:34:07;7.47;;;3.88;;
28960;SDS011;16068;42.896;20.868;2022-11-04T10:36:49;10.73;;;3.78;;
28960;SDS011;16068;42.896;20.868;2022-11-04T10:39:30;9.65;;;3.92;;
28960;SDS011;16068;42.896;20.868;2022-11-04T10:42:00;7.50;;;3.60;;
28960;SDS011;16068;42.896;20.868;2022-11-04T10:44:33;7.22;;;3.88;;
28960;SDS011;16068;42.896;20.868;2022-11-04T10:53:10;6.90;;;3.63;;
28960;SDS011;16068;42.896;20.868;2022-11-04T10:58:41;5.80;;;3.45;;
28960;SDS011;16068;42.896;20.868;2022-11-04T11:01:23;7.38;;;2.97;;
28960;SDS011;16068;42.896;20.868;2022-11-04T11:03:52;5.35;;;3.15;;
28960;SDS011;16068;42.896;20.868;2022-11-04T11:08:53;7.28;;;3.63;;
28960;SDS011;16068;42.896;20.868;2022-11-04T11:11:39;6.22;;;3.53;;
28960;SDS011;16068;42.896;20.868;2022-11-04T11:14:19;10.60;;;3.95;;
28960;SDS011;16068;42.896;20.868;2022-11-04T11:24:53;11.20;;;5.00;;
28960;SDS011;16068;42.896;20.868;2022-11-04T11:27:50;8.23;;;4.15;;
28960;SDS011;16068;42.896;20.868;2022-11-04T11:35:59;8.02;;;3.30;;
28960;SDS011;16068;42.896;20.868;2022-11-04T11:38:31;8.93;;;3.90;;
28960;SDS011;16068;42.896;20.868;2022-11-04T11:41:08;6.22;;;3.10;;
28960;SDS011;16068;42.896;20.868;2022-11-04T11:43:54;7.25;;;3.00;;
28960;SDS011;16068;42.896;20.868;2022-11-04T11:46:24;11.15;;;4.03;;
28960;SDS011;16068;42.896;20.868;2022-11-04T11:48:55;7.63;;;3.58;;
28960;SDS011;16068;42.896;20.868;2022-11-04T11:51:32;4.97;;;3.00;;
28960;SDS011;16068;42.896;20.868;2022-11-04T12:00:12;6.03;;;3.13;;
28960;SDS011;16068;42.896;20.868;2022-11-04T12:09:31;5.68;;;3.22;;
28960;SDS011;16068;42.896;20.868;2022-11-04T12:37:11;6.70;;;3.60;;
28960;SDS011;16068;42.896;20.868;2022-11-04T12:40:11;6.38;;;3.25;;
28960;SDS011;16068;42.896;20.868;2022-11-04T13:03:41;4.45;;;3.00;;
28960;SDS011;16068;42.896;20.868;2022-11-04T13:39:04;8.05;;;4.68;;
28960;SDS011;16068;42.896;20.868;2022-11-04T13:45:26;14.23;;;6.55;;
28960;SDS011;16068;42.896;20.868;2022-11-04T13:51:39;10.57;;;6.40;;
28960;SDS011;16068;42.896;20.868;2022-11-04T13:54:22;10.70;;;5.82;;
28960;SDS011;16068;42.896;20.868;2022-11-04T14:16:55;13.07;;;7.15;;
28960;SDS011;16068;42.896;20.868;2022-11-04T14:20:08;13.35;;;7.30;;
28960;SDS011;16068;42.896;20.868;2022-11-04T14:22:28;11.38;;;6.35;;
28960;SDS011;16068;42.896;20.868;2022-11-04T14:25:22;12.38;;;6.03;;
28960;SDS011;16068;42.896;20.868;2022-11-04T14:27:57;10.02;;;5.80;;
28960;SDS011;16068;42.896;20.868;2022-11-04T14:33:04;10.07;;;5.63;;
28960;SDS011;16068;42.896;20.868;2022-11-04T14:35:34;9.07;;;5.07;;
28960;SDS011;16068;42.896;20.868;2022-11-04T14:38:04;9.52;;;4.65;;
28960;SDS011;16068;42.896;20.868;2022-11-04T14:40:44;7.10;;;4.13;;
28960;SDS011;16068;42.896;20.868;2022-11-04T14:43:35;7.22;;;4.50;;
28960;SDS011;16068;42.896;20.868;2022-11-04T14:46:01;5.47;;;3.70;;
28960;SDS011;16068;42.896;20.868;2022-11-04T14:48:29;7.00;;;3.70;;
28960;SDS011;16068;42.896;20.868;2022-11-04T14:50:57;5.65;;;3.83;;
28960;SDS011;16068;42.896;20.868;2022-11-04T14:53:32;5.13;;;3.30;;
28960;SDS011;16068;42.896;20.868;2022-11-04T14:56:04;5.20;;;3.20;;
28960;SDS011;16068;42.896;20.868;2022-11-04T15:01:33;4.72;;;3.00;;
28960;SDS011;16068;42.896;20.868;2022-11-04T15:04:25;4.40;;;2.70;;
28960;SDS011;16068;42.896;20.868;2022-11-04T15:06:56;5.30;;;2.80;;
28960;SDS011;16068;42.896;20.868;2022-11-04T15:12:17;4.20;;;2.55;;
28960;SDS011;16068;42.896;20.868;2022-11-04T15:15:24;4.10;;;2.70;;
28960;SDS011;16068;42.896;20.868;2022-11-04T15:17:56;4.45;;;2.90;;
28960;SDS011;16068;42.896;20.868;2022-11-04T15:20:28;7.50;;;2.88;;
28960;SDS011;16068;42.896;20.868;2022-11-04T15:22:57;6.40;;;3.38;;
28960;SDS011;16068;42.896;20.868;2022-11-04T15:25:27;8.05;;;4.20;;
28960;SDS011;16068;42.896;20.868;2022-11-04T15:27:54;6.47;;;3.90;;
28960;SDS011;16068;42.896;20.868;2022-11-04T15:30:24;8.07;;;4.38;;
28960;SDS011;16068;42.896;20.868;2022-11-04T15:32:56;7.68;;;4.60;;
28960;SDS011;16068;42.896;20.868;2022-11-04T15:35:29;8.57;;;4.85;;
28960;SDS011;16068;42.896;20.868;2022-11-04T15:37:58;7.40;;;4.65;;
28960;SDS011;16068;42.896;20.868;2022-11-04T15:40:27;11.68;;;4.75;;
28960;SDS011;16068;42.896;20.868;2022-11-04T15:42:55;8.43;;;5.10;;
28960;SDS011;16068;42.896;20.868;2022-11-04T15:45:37;8.45;;;5.28;;
28960;SDS011;16068;42.896;20.868;2022-11-04T15:51:16;8.68;;;4.80;;
28960;SDS011;16068;42.896;20.868;2022-11-04T15:53:54;11.50;;;4.50;;
28960;SDS011;16068;42.896;20.868;2022-11-04T15:56:28;7.38;;;4.95;;
28960;SDS011;16068;42.896;20.868;2022-11-04T15:58:57;9.85;;;5.65;;
28960;SDS011;16068;42.896;20.868;2022-11-04T16:01:26;8.27;;;5.10;;
28960;SDS011;16068;42.896;20.868;2022-11-04T16:03:56;9.57;;;6.18;;
28960;SDS011;16068;42.896;20.868;2022-11-04T16:06:38;11.48;;;6.80;;
28960;SDS011;16068;42.896;20.868;2022-11-04T16:09:19;13.02;;;7.55;;
28960;SDS011;16068;42.896;20.868;2022-11-04T16:12:10;13.82;;;8.00;;
28960;SDS011;16068;42.896;20.868;2022-11-04T16:17:14;14.65;;;8.15;;
28960;SDS011;16068;42.896;20.868;2022-11-04T16:19:44;21.05;;;11.07;;
28960;SDS011;16068;42.896;20.868;2022-11-04T16:22:16;26.20;;;12.93;;
28960;SDS011;16068;42.896;20.868;2022-11-04T16:24:50;25.88;;;13.35;;
28960;SDS011;16068;42.896;20.868;2022-11-04T16:27:21;26.92;;;14.95;;
28960;SDS011;16068;42.896;20.868;2022-11-04T16:30:35;28.35;;;15.50;;
28960;SDS011;16068;42.896;20.868;2022-11-04T16:32:45;23.75;;;13.10;;
28960;SDS011;16068;42.896;20.868;2022-11-04T16:35:28;26.73;;;14.43;;
28960;SDS011;16068;42.896;20.868;2022-11-04T16:37:59;21.38;;;12.82;;
28960;SDS011;16068;42.896;20.868;2022-11-04T16:40:27;25.55;;;11.45;;
28960;SDS011;16068;42.896;20.868;2022-11-04T16:42:55;18.40;;;10.13;;
28960;SDS011;16068;42.896;20.868;2022-11-04T16:45:29;17.67;;;9.77;;
28960;SDS011;16068;42.896;20.868;2022-11-04T16:48:00;13.93;;;8.55;;
28960;SDS011;16068;42.896;20.868;2022-11-04T16:50:29;15.23;;;8.57;;
28960;SDS011;16068;42.896;20.868;2022-11-04T16:53:00;13.80;;;7.43;;
28960;SDS011;16068;42.896;20.868;2022-11-04T16:55:30;12.77;;;7.05;;
28960;SDS011;16068;42.896;20.868;2022-11-04T16:58:00;11.73;;;6.60;;
28960;SDS011;16068;42.896;20.868;2022-11-04T17:00:29;11.30;;;6.25;;
28960;SDS011;16068;42.896;20.868;2022-11-04T17:03:00;9.60;;;6.03;;
28960;SDS011;16068;42.896;20.868;2022-11-04T17:05:41;9.73;;;5.63;;
28960;SDS011;16068;42.896;20.868;2022-11-04T17:08:08;8.15;;;5.05;;
28960;SDS011;16068;42.896;20.868;2022-11-04T17:10:39;8.75;;;4.57;;
28960;SDS011;16068;42.896;20.868;2022-11-04T17:13:07;8.15;;;4.50;;
28960;SDS011;16068;42.896;20.868;2022-11-04T17:15:35;7.72;;;4.40;;
28960;SDS011;16068;42.896;20.868;2022-11-04T17:18:03;8.05;;;4.43;;
28960;SDS011;16068;42.896;20.868;2022-11-04T17:20:30;8.25;;;4.70;;
28960;SDS011;16068;42.896;20.868;2022-11-04T17:22:58;6.80;;;3.95;;
28960;SDS011;16068;42.896;20.868;2022-11-04T17:25:27;7.28;;;4.35;;
28960;SDS011;16068;42.896;20.868;2022-11-04T17:27:55;7.05;;;4.30;;
28960;SDS011;16068;42.896;20.868;2022-11-04T17:30:23;5.80;;;3.60;;
28960;SDS011;16068;42.896;20.868;2022-11-04T17:32:51;6.03;;;3.40;;
28960;SDS011;16068;42.896;20.868;2022-11-04T17:35:19;4.60;;;3.03;;
28960;SDS011;16068;42.896;20.868;2022-11-04T17:37:48;5.43;;;3.30;;
28960;SDS011;16068;42.896;20.868;2022-11-04T17:40:20;6.70;;;3.70;;
28960;SDS011;16068;42.896;20.868;2022-11-04T17:42:48;5.45;;;3.53;;
28960;SDS011;16068;42.896;20.868;2022-11-04T17:45:39;6.03;;;3.45;;
28960;SDS011;16068;42.896;20.868;2022-11-04T17:48:08;5.10;;;3.50;;
28960;SDS011;16068;42.896;20.868;2022-11-04T17:50:37;6.75;;;3.72;;
28960;SDS011;16068;42.896;20.868;2022-11-04T17:53:05;9.55;;;4.43;;
28960;SDS011;16068;42.896;20.868;2022-11-04T17:55:37;6.45;;;3.97;;
28960;SDS011;16068;42.896;20.868;2022-11-04T17:58:06;6.13;;;3.92;;
28960;SDS011;16068;42.896;20.868;2022-11-04T18:00:33;6.30;;;3.72;;
28960;SDS011;16068;42.896;20.868;2022-11-04T18:03:01;6.18;;;3.83;;
28960;SDS011;16068;42.896;20.868;2022-11-04T18:05:28;5.25;;;3.50;;
28960;SDS011;16068;42.896;20.868;2022-11-04T18:07:56;5.70;;;3.40;;
28960;SDS011;16068;42.896;20.868;2022-11-04T18:10:24;4.50;;;2.80;;
28960;SDS011;16068;42.896;20.868;2022-11-04T18:12:53;5.65;;;2.67;;
28960;SDS011;16068;42.896;20.868;2022-11-04T18:15:21;6.03;;;3.20;;
28960;SDS011;16068;42.896;20.868;2022-11-04T18:17:49;5.25;;;3.05;;
28960;SDS011;16068;42.896;20.868;2022-11-04T18:20:18;4.88;;;2.90;;
28960;SDS011;16068;42.896;20.868;2022-11-04T18:22:46;4.18;;;2.67;;
28960;SDS011;16068;42.896;20.868;2022-11-04T18:25:14;5.35;;;2.80;;
28960;SDS011;16068;42.896;20.868;2022-11-04T18:27:42;5.30;;;3.13;;
28960;SDS011;16068;42.896;20.868;2022-11-04T18:30:09;5.85;;;2.70;;
28960;SDS011;16068;42.896;20.868;2022-11-04T18:32:37;4.22;;;2.67;;
28960;SDS011;16068;42.896;20.868;2022-11-04T18:35:05;3.90;;;2.50;;
28960;SDS011;16068;42.896;20.868;2022-11-04T18:37:33;4.47;;;2.40;;
28960;SDS011;16068;42.896;20.868;2022-11-04T18:40:00;4.47;;;2.65;;
28960;SDS011;16068;42.896;20.868;2022-11-04T18:42:28;4.38;;;2.50;;
28960;SDS011;16068;42.896;20.868;2022-11-04T18:44:56;2.92;;;2.22;;
28960;SDS011;16068;42.896;20.868;2022-11-04T18:47:23;3.75;;;2.58;;
28960;SDS011;16068;42.896;20.868;2022-11-04T18:49:52;6.05;;;3.90;;
28960;SDS011;16068;42.896;20.868;2022-11-04T18:52:20;7.68;;;4.63;;
28960;SDS011;16068;42.896;20.868;2022-11-04T18:54:48;7.38;;;4.15;;